📊 Raw Sensor Data

Showing records 35026 to 35050 of 84,870 total

ID Distance (ft) Battery V Battery A Int Temp (°F) Int Humid (%) Ext Temp (°F) Solar V RSSI SNR Time Stamp
49857 15.3 3.80 0 104 54 95 4.60 -71 8 08/21/2025 07:00 PM
49856 15.4 3.78 0 107 53 98 5.10 -72 7 08/21/2025 06:45 PM
49855 15.4 3.78 0 110 52 99 5.10 -70 8 08/21/2025 06:30 PM
49854 15.4 3.78 0 113 51 100 5.10 -70 8 08/21/2025 06:15 PM
49853 15.4 3.84 0 115 49 106 5.10 -71 7 08/21/2025 06:00 PM
49852 15.4 4.03 0 115 48 107 5.10 -70 7 08/21/2025 05:45 PM
49851 15.4 3.78 0 114 49 103 5.10 -71 7 08/21/2025 05:30 PM
49850 15.4 3.78 0 117 47 106 5.20 -71 8 08/21/2025 05:15 PM
49849 15.4 3.78 0 118 45 106 5.10 -69 8 08/21/2025 05:00 PM
49848 15.4 3.78 0 116 45 108 5.20 -70 8 08/21/2025 04:45 PM
49847 15.3 4.07 0 114 46 105 5.10 -71 8 08/21/2025 04:30 PM
49846 15.3 3.78 0 111 49 101 5.20 -70 8 08/21/2025 04:15 PM
49845 15.4 3.78 0 117 44 106 5.10 -70 8 08/21/2025 04:00 PM
49844 15.4 3.78 0 117 42 110 5.20 -70 8 08/21/2025 03:45 PM
49843 15.3 3.78 0 112 45 106 5.20 -70 8 08/21/2025 03:30 PM
49842 15.3 3.78 0 112 45 98 5.20 -70 8 08/21/2025 03:15 PM
49841 15.3 3.78 0 114 43 102 5.20 -70 8 08/21/2025 03:00 PM
49840 15.3 3.83 0 113 43 98 5.20 -71 8 08/21/2025 02:45 PM
49839 15.3 3.78 0 112 43 98 5.20 -71 8 08/21/2025 02:30 PM
49838 15.3 3.78 0 111 42 100 5.20 -70 8 08/21/2025 02:15 PM
49837 15.3 3.78 0 111 42 99 5.20 -69 8 08/21/2025 02:00 PM
49836 15.3 3.78 0 108 42 100 5.20 -71 8 08/21/2025 01:45 PM
49835 15.4 3.78 0 107 42 98 5.20 -71 7 08/21/2025 01:30 PM
49834 15.3 3.78 0 106 42 98 5.10 -68 8 08/21/2025 01:15 PM
49833 15.3 3.80 0 105 42 97 5.20 -71 8 08/21/2025 01:00 PM